createdAt,value
2024-05-09T00:01:07.345Z,101128.50
2024-05-09T00:06:09.998Z,101127.94
2024-05-09T00:11:14.795Z,101133.94
2024-05-09T00:16:16.607Z,101132.44
2024-05-09T00:21:18.326Z,101120.56
2024-05-09T00:26:20.067Z,101125.88
2024-05-09T00:31:21.818Z,101132.19
2024-05-09T00:36:23.571Z,101132.84
2024-05-09T00:41:25.309Z,101135.75
2024-05-09T00:46:27.173Z,101133.25
2024-05-09T00:51:29.310Z,101130.00
2024-05-09T00:56:31.171Z,101120.53
2024-05-09T01:01:33.182Z,101111.97
2024-05-09T01:06:34.969Z,101124.59
2024-05-09T01:11:38.351Z,101118.44
2024-05-09T01:16:40.340Z,101115.56
2024-05-09T01:21:42.054Z,101117.28
2024-05-09T01:26:43.836Z,101113.59
2024-05-09T01:31:47.342Z,101090.47
2024-05-09T01:36:49.111Z,101117.09
2024-05-09T01:41:50.954Z,101115.09
2024-05-09T01:46:52.755Z,101109.69
2024-05-09T01:51:54.473Z,101103.19
2024-05-09T01:56:56.242Z,101122.31
2024-05-09T02:01:58.183Z,101113.81
2024-05-09T02:07:00.061Z,101113.41
2024-05-09T02:12:02.078Z,101122.31
2024-05-09T02:17:04.245Z,101123.25
2024-05-09T02:22:06.004Z,101114.38
2024-05-09T02:27:07.770Z,101118.72
2024-05-09T02:32:09.580Z,101120.19
2024-05-09T02:37:11.365Z,101127.59
2024-05-09T02:42:13.116Z,101126.81
2024-05-09T02:47:14.990Z,101118.72
2024-05-09T02:52:19.872Z,101118.44
2024-05-09T02:57:21.636Z,101124.59
2024-05-09T03:02:23.446Z,101127.59
2024-05-09T03:07:25.218Z,101125.19
2024-05-09T03:12:28.405Z,101132.91
2024-05-09T03:17:30.409Z,101131.34
2024-05-09T03:22:32.327Z,101138.69
2024-05-09T03:27:34.035Z,101140.78
2024-05-09T03:32:35.972Z,101134.34
2024-05-09T03:37:37.740Z,101141.06
2024-05-09T03:42:41.898Z,101141.16
2024-05-09T03:47:43.827Z,101148.50
2024-05-09T03:52:45.806Z,101146.75
2024-05-09T03:57:47.525Z,101152.00
2024-05-09T04:02:49.541Z,101148.34
2024-05-09T04:07:51.437Z,101149.69
2024-05-09T04:12:53.412Z,101151.63
2024-05-09T04:17:55.356Z,101158.72
2024-05-09T04:22:57.386Z,101155.84
2024-05-09T04:27:59.141Z,101158.75
2024-05-09T04:33:01.058Z,101162.19
2024-05-09T04:38:03.148Z,101160.06
2024-05-09T04:43:06.187Z,101159.09
2024-05-09T04:48:09.058Z,101153.81
2024-05-09T04:53:15.899Z,101154.97
2024-05-09T04:58:17.692Z,101158.34
2024-05-09T05:03:20.022Z,101154.88
2024-05-09T05:08:21.914Z,101159.91
2024-05-09T05:13:24.513Z,101151.78
2024-05-09T05:18:28.121Z,101149.59
2024-05-09T05:23:30.273Z,101144.19
2024-05-09T05:28:32.063Z,101150.94
2024-05-09T05:33:33.915Z,101141.34
2024-05-09T05:38:35.942Z,101146.41
2024-05-09T05:43:37.660Z,101144.13
2024-05-09T05:48:39.812Z,101134.38
2024-05-09T05:53:41.627Z,101132.59
2024-05-09T05:58:43.419Z,101146.75
2024-05-09T06:03:45.239Z,101146.50
2024-05-09T06:08:47.096Z,101157.88
2024-05-09T06:13:48.961Z,101154.66
2024-05-09T06:18:50.873Z,101154.53
2024-05-09T06:23:53.574Z,101164.16
2024-05-09T06:28:55.383Z,101162.69
2024-05-09T06:33:57.280Z,101166.38
2024-05-09T06:38:59.183Z,101158.06
2024-05-09T06:44:00.920Z,101160.13
2024-05-09T06:49:08.118Z,101156.03
2024-05-09T06:54:10.342Z,101154.03
2024-05-09T06:59:12.134Z,101142.59
2024-05-09T07:04:14.044Z,101155.25
2024-05-09T07:09:15.847Z,101156.59
2024-05-09T07:14:17.647Z,101161.16
2024-05-09T07:19:19.506Z,101151.47
2024-05-09T07:24:21.317Z,101158.97
2024-05-09T07:29:23.049Z,101160.78
2024-05-09T07:34:25.499Z,101147.47
2024-05-09T07:39:27.598Z,101146.59
2024-05-09T07:44:30.717Z,101157.84
2024-05-09T07:54:37.272Z,101149.19
2024-05-09T07:59:39.290Z,101137.09
2024-05-09T08:04:41.280Z,101129.94
2024-05-09T08:09:43.238Z,101136.31
2024-05-09T08:14:44.989Z,101137.66
2024-05-09T08:19:47.936Z,101142.63
2024-05-09T08:24:49.793Z,101140.44
2024-05-09T08:29:51.559Z,101133.44
2024-05-09T08:34:53.431Z,101127.44
2024-05-09T08:39:55.296Z,101141.56
2024-05-09T08:44:57.098Z,101142.09
2024-05-09T08:50:01.004Z,101142.09
2024-05-09T08:55:03.537Z,101131.91
2024-05-09T09:00:10.214Z,101130.88
2024-05-09T09:05:17.902Z,101134.66
2024-05-09T09:10:29.221Z,101128.88
2024-05-09T09:15:33.600Z,101137.16
2024-05-09T09:20:36.861Z,101139.19
2024-05-09T09:25:42.394Z,101137.75
2024-05-09T09:30:44.356Z,101131.56
2024-05-09T09:35:46.185Z,101131.94
2024-05-09T09:40:50.110Z,101143.75
2024-05-09T09:45:53.895Z,101145.22
2024-05-09T09:50:56.866Z,101127.59
2024-05-09T09:55:59.372Z,101132.16
2024-05-09T10:01:01.228Z,101133.25
2024-05-09T10:06:04.411Z,101128.31
2024-05-09T10:11:06.831Z,101119.97
2024-05-09T10:16:10.575Z,101123.88
2024-05-09T10:21:19.629Z,101120.44
2024-05-09T10:26:34.105Z,101106.44
2024-05-09T10:31:41.159Z,101101.63
2024-05-09T10:36:43.913Z,101101.47
2024-05-09T10:41:45.756Z,101110.06
2024-05-09T10:46:48.128Z,101108.53
2024-05-09T10:51:50.743Z,101083.69
2024-05-09T10:56:58.560Z,101076.38
2024-05-09T11:02:04.011Z,101091.22
2024-05-09T11:07:10.211Z,101073.38
2024-05-09T11:12:12.199Z,101079.56
2024-05-09T11:17:14.302Z,101077.06
2024-05-09T11:22:17.199Z,101070.28
2024-05-09T11:27:21.063Z,101072.00
2024-05-09T11:32:30.145Z,101073.22
2024-05-09T11:37:36.049Z,101065.44
2024-05-09T11:42:38.961Z,101054.56
2024-05-09T11:47:40.810Z,101049.50
2024-05-09T11:52:42.838Z,101051.53
2024-05-09T11:57:45.009Z,101050.16
2024-05-09T12:02:46.831Z,101043.91
2024-05-09T12:07:48.605Z,101043.78
2024-05-09T12:12:50.349Z,101042.44
2024-05-09T12:17:52.223Z,101034.66
2024-05-09T12:22:54.176Z,101033.41
2024-05-09T12:27:56.003Z,101028.22
2024-05-09T12:32:57.973Z,101019.94
2024-05-09T12:37:59.722Z,101013.63
2024-05-09T12:43:01.521Z,101015.75
2024-05-09T12:48:04.774Z,101009.34
2024-05-09T12:53:06.850Z,101002.22
2024-05-09T12:58:09.021Z,101005.56
2024-05-09T13:03:11.100Z,101005.72
2024-05-09T13:08:13.900Z,100980.63
2024-05-09T13:13:15.895Z,100979.88
2024-05-09T13:18:17.835Z,100975.03
2024-05-09T13:23:19.620Z,100962.91
2024-05-09T13:28:22.842Z,100977.19
2024-05-09T13:33:24.775Z,100969.91
2024-05-09T13:38:26.588Z,100960.53
2024-05-09T13:43:28.584Z,100958.56
2024-05-09T13:48:30.979Z,100949.78
2024-05-09T13:53:32.828Z,100946.09
2024-05-09T13:58:34.918Z,100946.72
2024-05-09T14:03:36.889Z,100936.25
2024-05-09T14:08:38.729Z,100932.06
2024-05-09T14:13:40.619Z,100924.03
2024-05-09T14:18:42.466Z,100917.44
2024-05-09T14:23:44.217Z,100917.09
2024-05-09T14:28:46.072Z,100904.03
2024-05-09T14:33:48.015Z,100909.72
2024-05-09T14:38:49.862Z,100904.47
2024-05-09T14:43:51.567Z,100906.47
2024-05-09T14:48:53.454Z,100898.31
2024-05-09T14:53:55.249Z,100887.97
2024-05-09T14:58:57.324Z,100887.44
2024-05-09T15:03:59.130Z,100880.75
2024-05-09T15:09:02.012Z,100889.19
2024-05-09T15:14:03.730Z,100884.56
2024-05-09T15:19:05.689Z,100878.47
2024-05-09T15:24:07.484Z,100868.38
2024-05-09T15:29:09.364Z,100866.44
2024-05-09T15:34:11.252Z,100869.09
2024-05-09T15:39:13.143Z,100859.00
2024-05-09T15:44:15.265Z,100851.44
2024-05-09T15:49:17.186Z,100844.72
2024-05-09T15:54:19.381Z,100839.78
2024-05-09T15:59:21.684Z,100838.38
2024-05-09T16:04:23.615Z,100835.78
2024-05-09T16:09:25.714Z,100840.22
2024-05-09T16:14:27.481Z,100838.91
2024-05-09T16:19:29.249Z,100833.25
2024-05-09T16:24:31.030Z,100831.03
2024-05-09T16:29:32.822Z,100822.69
2024-05-09T16:34:34.610Z,100827.97
2024-05-09T16:39:36.604Z,100830.13
2024-05-09T16:44:38.334Z,100821.22
2024-05-09T16:49:40.052Z,100820.34
2024-05-09T16:54:41.840Z,100830.72
2024-05-09T16:59:43.600Z,100825.00
2024-05-09T17:04:45.482Z,100824.31
2024-05-09T17:09:47.465Z,100824.41
2024-05-09T17:14:49.222Z,100818.94
2024-05-09T17:19:51.031Z,100824.41
2024-05-09T17:24:52.812Z,100820.47
2024-05-09T17:29:54.849Z,100826.53
2024-05-09T17:34:56.643Z,100823.97
2024-05-09T17:39:58.528Z,100821.72
2024-05-09T17:45:00.729Z,100826.34
2024-05-09T17:50:04.549Z,100827.06
2024-05-09T17:55:07.844Z,100820.63
2024-05-09T18:00:11.810Z,100820.22
2024-05-09T18:05:13.848Z,100820.66
2024-05-09T18:10:22.210Z,100822.38
2024-05-09T18:15:27.691Z,100813.50
2024-05-09T18:20:38.048Z,100815.66
2024-05-09T18:25:45.971Z,100831.59
2024-05-09T18:30:47.873Z,100834.19
2024-05-09T18:35:49.686Z,100835.31
2024-05-09T18:40:52.387Z,100841.31
2024-05-09T18:45:54.219Z,100845.91
2024-05-09T18:50:55.980Z,100843.00
2024-05-09T18:55:57.896Z,100851.91
2024-05-09T19:01:01.730Z,100857.00
2024-05-09T19:06:04.178Z,100859.88
2024-05-09T19:11:06.197Z,100867.84
2024-05-09T19:16:08.182Z,100872.69
2024-05-09T19:21:10.040Z,100869.50
2024-05-09T19:26:11.797Z,100878.38
2024-05-09T19:31:13.564Z,100872.84
2024-05-09T19:36:15.362Z,100871.38
2024-05-09T19:41:18.182Z,100878.72
2024-05-09T19:46:20.246Z,100873.09
2024-05-09T19:51:22.099Z,100878.91
2024-05-09T19:56:24.265Z,100871.22
2024-05-09T20:01:26.054Z,100881.56
2024-05-09T20:06:29.632Z,100883.38
2024-05-09T20:11:33.189Z,100882.44
2024-05-09T20:16:35.062Z,100879.16
2024-05-09T20:21:42.538Z,100875.22
2024-05-09T20:26:44.293Z,100879.63
2024-05-09T20:31:46.055Z,100880.41
2024-05-09T20:36:48.189Z,100871.91
2024-05-09T20:41:50.073Z,100877.72
2024-05-09T20:46:51.816Z,100871.53
2024-05-09T20:51:53.563Z,100869.34
2024-05-09T20:56:55.268Z,100874.19
2024-05-09T21:01:57.235Z,100879.94
2024-05-09T21:06:59.122Z,100878.97
2024-05-09T21:12:00.973Z,100887.31
2024-05-09T21:17:02.830Z,100884.34
2024-05-09T21:22:04.882Z,100875.72
2024-05-09T21:27:06.699Z,100874.94
2024-05-09T21:32:08.592Z,100880.84
2024-05-09T21:37:10.449Z,100876.34
2024-05-09T21:42:12.273Z,100870.91
2024-05-09T21:47:14.037Z,100875.69
2024-05-09T21:52:16.001Z,100871.47
2024-05-09T21:57:17.841Z,100870.84
2024-05-09T22:02:19.681Z,100873.31
2024-05-09T22:07:22.086Z,100868.59
2024-05-09T22:12:24.189Z,100862.13
2024-05-09T22:17:26.142Z,100869.75
2024-05-09T22:22:27.965Z,100866.28
2024-05-09T22:27:29.682Z,100864.78
2024-05-09T22:32:31.510Z,100866.09
2024-05-09T22:37:33.896Z,100877.38
2024-05-09T22:42:35.643Z,100869.59
2024-05-09T22:47:37.455Z,100864.41
2024-05-09T22:52:39.830Z,100866.59
2024-05-09T22:57:41.758Z,100855.47
2024-05-09T23:02:43.926Z,100857.88
2024-05-09T23:07:45.659Z,100855.84
2024-05-09T23:12:47.813Z,100851.00
2024-05-09T23:17:49.820Z,100844.19
2024-05-09T23:22:51.719Z,100849.59
2024-05-09T23:27:53.641Z,100846.91
2024-05-09T23:32:55.757Z,100852.84
2024-05-09T23:37:57.560Z,100846.97
2024-05-09T23:42:59.381Z,100843.31
2024-05-09T23:48:01.456Z,100839.63
2024-05-09T23:53:03.579Z,100842.66
2024-05-09T23:58:06.120Z,100834.47
